Startpagina
METAR-TAF:

METAR-TAF

Vliegvelden :

Dortmund, Duitsland

Flughafen Dortmund

breedte: 51-31N, lengte: 007-37E, hoogte: 127 m

Actueel weer

Dit bericht is 32 minuten geleden gemaakt, om 06:20 UTC
Wind 5 kt uit het westen, variërend tussen het zuidzuidwesten en het noorden
Temperatuur 13°C
Vochtigheid 94%
Druk 1008 hPa
Zicht: 5000 m
Gebroken wolken op 400 ft
lichte regen, nevel

METAR: EDLW 250620Z 28005KT 210V350 5000 -RA BR BKN004 13/12 Q1008

Tijdstip: 08:52 (06:52 UTC)

Verwachting

Dit bericht is 1 uur en het 52 minuten geleden gemaakt, om 05:00 UTC
Verwachting geldig van 25 om 06 UTC tot 26 om 06 UTC
Wind 6 kt uit het westen
Zicht: 6000 m
Gebroken wolken op 700 ft
regen
Tijdelijke
van 25 om 06 UTC tot 26 om 06 UTC
Zicht: 2000 m
Gebroken wolken op 200 ft
regen

TAF: EDLW 250500Z 2506/2606 28006KT 6000 RA BKN007 TEMPO 2506/2606 2000 RA BKN002

Waarnemingen en weersverwachtingen van meer dan 4000 vliegvelden (METAR en TAF).

De beschikbare stations zijn de gele en rode punten op de kaart.

Ga met uw muis naar het station om de naam te zien.

Klik dan om waarnemingen en weersverwachtingen te zien.

kaart wijzigen: klik op de groene knoppen met een zwart kruis om in te zoomen, op de groene knop met een streepje om uit te zoomen of op de groene pijlen voor aangrenzende kaarten.


METAR-TAF: